»·PEaware :: N172SP L52-L88

N172SP :: L52-L88

FLIGHT INFORMATION

Flight Status: Arrived
Operator: Privately registered:
United States
More flights under this callsign
Pilot: Gavin S. (2922)
Aircraft: CESSNA 172 SKYHAWK
(C172)
More flights by this aircraft type
Origin: L52 Oceano Co
United States
Destination: L88 New Cuyama
United States
More flights between these airports :: More routes between these airports
Route:
File this flight plan on PilotEdge
Remarks: CAT-01 Flight
Altitude:
(Current/Filed)
2,000ft
Speed:
(Current/Filed)
115kts
Departed: 07-Nov-18 05:39 PM
Arrived: 07-Nov-18 06:12 PM
Distance/Time
Traveled:
47nm/0:33
Distance/Time
To Go:
Arrived

Flight Plot

Page will automatically refresh every two minutes.


Map Options




Map Legend


Flown Route
Filed Route
Departure Airport
Arrival Airport
Navaid (VOR, NDB)
Fix

Horizontal Profiles

Position Reports

Time Latitude Longitude Heading Altitude Ground
Speed
07-Nov-18 17:36 35.103452 -120.624820 213 18ft 0kts
07-Nov-18 17:37 35.103452 -120.624820 213 18ft 0kts
07-Nov-18 17:38 35.103452 -120.624820 213 18ft 0kts
07-Nov-18 17:39 35.103452 -120.624820 213 18ft 0kts
07-Nov-18 17:40 35.103539 -120.625212 297 18ft 0kts
07-Nov-18 17:41 35.103143 -120.625398 136 18ft 11kts
07-Nov-18 17:42 35.093611 -120.608393 121 442ft 76kts
07-Nov-18 17:43 35.086951 -120.583627 90 1116ft 80kts
07-Nov-18 17:44 35.079973 -120.555847 122 1704ft 92kts
07-Nov-18 17:45 35.057585 -120.537907 156 2049ft 107kts
07-Nov-18 17:46 35.045391 -120.507563 91 1999ft 109kts
07-Nov-18 17:47 35.043000 -120.471310 96 2000ft 106kts
07-Nov-18 17:48 35.039416 -120.438206 97 2417ft 89kts
07-Nov-18 17:49 35.035788 -120.407998 98 3010ft 89kts
07-Nov-18 17:50 35.032229 -120.379798 98 3624ft 84kts
07-Nov-18 17:51 35.028419 -120.350219 98 4006ft 103kts
07-Nov-18 17:52 35.023396 -120.312325 99 4000ft 114kts
07-Nov-18 17:53 35.018303 -120.273600 99 4000ft 115kts
07-Nov-18 17:54 35.013215 -120.234832 99 4000ft 115kts
07-Nov-18 17:55 35.008574 -120.199206 98 4483ft 89kts
07-Nov-18 17:56 35.007747 -120.168631 78 4982ft 92kts
07-Nov-18 17:57 35.012622 -120.138955 78 5495ft 92kts
07-Nov-18 17:58 35.031442 -120.109504 48 5345ft 117kts
07-Nov-18 17:59 35.052190 -120.081805 47 5478ft 104kts
07-Nov-18 18:00 35.072299 -120.050894 56 5499ft 120kts
07-Nov-18 18:01 35.071322 -120.012211 105 5494ft 114kts
07-Nov-18 18:02 35.058657 -119.976385 114 5215ft 123kts
07-Nov-18 18:03 35.045319 -119.939813 114 4267ft 118kts
07-Nov-18 18:04 35.031842 -119.902841 113 3260ft 117kts
07-Nov-18 18:05 35.016629 -119.868545 128 3288ft 108kts
07-Nov-18 18:06 34.995495 -119.838754 132 3196ft 122kts
07-Nov-18 18:07 34.973039 -119.812653 123 3156ft 106kts
07-Nov-18 18:08 34.959236 -119.781591 119 3186ft 104kts
07-Nov-18 18:09 34.944539 -119.748780 120 3242ft 115kts
07-Nov-18 18:10 34.927905 -119.716697 121 3245ft 108kts
07-Nov-18 18:11 34.913263 -119.688305 121 3243ft 85kts
07-Nov-18 18:12 34.911361 -119.664436 38 3212ft 73kts
07-Nov-18 18:13 34.927984 -119.658069 300 2755ft 76kts
07-Nov-18 18:14 34.938344 -119.681779 296 2223ft 72kts
07-Nov-18 18:15 34.942439 -119.690562 37 2207ft 0kts
07-Nov-18 18:16 34.942439 -119.690562 37 2207ft 0kts
07-Nov-18 18:17 34.942439 -119.690562 37 2207ft 0kts
07-Nov-18 18:18 34.934490 -119.672267 297 2473ft 79kts
07-Nov-18 18:19 34.910953 -119.664843 39 3218ft 74kts
07-Nov-18 18:20 34.914084 -119.661845 36 3192ft 69kts
07-Nov-18 18:21 34.921866 -119.654815 35 2938ft 81kts
07-Nov-18 18:22 34.925750 -119.654550 315 2849ft 73kts
07-Nov-18 18:23 34.928189 -119.658494 300 2747ft 77kts
07-Nov-18 18:24 34.930443 -119.663028 302 2682ft 79kts
07-Nov-18 18:25 34.937576 -119.679807 294 2256ft 79kts
07-Nov-18 18:26 34.942439 -119.690562 37 2207ft 0kts
07-Nov-18 18:27 34.942439 -119.690562 37 2207ft 0kts
07-Nov-18 18:28 34.942439 -119.690562 37 2207ft 0kts
07-Nov-18 18:29 34.942439 -119.690562 37 2207ft 0kts

Navigation Log

Ident Type
Flight plan parsing failed, navigation log unavailable